Taylor Fork

This weather station provides wind speed, gust or max wind speed, and wind direction at 9460 ft. near Pika Point above Sunlight Basin.  

This data can be used with temperature and precipitation data from the Carrot Basin SNOTEL site. If the data below is not displayed or up to date, view data here.

Elevation
9460ft
Jump to table bottom
Date Time Temperature
deg F
RH, % Wind Speed Wind Gust Wind Direction
02/22/24 05:00 16.9 94 7 14 W - 268
02/22/24 04:00 16.7 94 10 16 W - 271
02/22/24 03:00 16.2 94 8 16 W - 259
02/22/24 02:00 17.4 93 7 14 W - 260
02/22/24 01:00 18.2 87 10 17 W - 277
02/22/24 00:00 18.8 88 10 17 NW - 309
02/21/24 23:00 19.6 82 9 13 NW - 302
02/21/24 22:00 19.5 81 9 13 NW - 295
02/21/24 21:00 19.9 80 8 10 NW - 294
02/21/24 20:00 20.3 80 8 13 W - 283
02/21/24 19:00 20.2 78 9 16 W - 263
02/21/24 18:00 21.0 75 10 14 W - 284
02/21/24 17:00 21.5 70 10 16 NW - 316
02/21/24 16:00 23.4 88 11 16 NW - 298
02/21/24 15:00 24.6 92 10 19 NW - 325
02/21/24 14:00 25.0 93 10 16 NW - 334
02/21/24 13:00 23.0 95 4 12 N - 340
02/21/24 12:00 27.0 96 1 5 S - 163
02/21/24 11:00 29.9 94 2 7 N - 374
02/21/24 10:00 22.9 94 4 10 N - 351
02/21/24 09:00 19.3 95 6 8 NW - 308
02/21/24 08:00 18.0 96 6 9 W - 253
02/21/24 07:00 18.0 95 7 10 S - 201
02/21/24 06:00 16.6 95 6 10 SW - 211
02/21/24 05:00 16.7 96 6 10 SW - 222
02/21/24 04:00 17.1 96 9 14 S - 169
02/21/24 03:00 17.4 96 10 14 S - 179
02/21/24 02:00 17.2 96 10 13 S - 172
02/21/24 01:00 17.7 96 11 16 S - 193
02/21/24 00:00 17.7 96 12 18 SW - 205
02/20/24 23:00 18.7 96 13 20 SW - 226
02/20/24 22:00 19.2 96 14 23 SW - 221
02/20/24 21:00 19.5 96 14 21 SW - 228
02/20/24 20:00 19.1 96 14 24 SW - 239
02/20/24 19:00 19.2 96 16 26 SW - 231
02/20/24 18:00 19.4 97 14 23 SW - 218
02/20/24 17:00 20.0 97 14 21 SW - 214
02/20/24 16:00 23.3 97 16 26 SW - 239
02/20/24 15:00 22.0 97 16 27 SW - 242
02/20/24 14:00 23.3 97 15 26 SW - 236
02/20/24 13:00 23.0 97 15 25 SW - 219
02/20/24 12:00 23.0 97 12 22 SW - 225
02/20/24 11:00 22.1 97 13 26 SW - 229
02/20/24 10:00 21.7 97 14 24 SW - 243
02/20/24 09:00 20.7 96 13 25 SW - 232
02/20/24 08:00 19.6 96 15 26 SW - 219
02/20/24 07:00 18.8 96 12 22 SW - 219
02/20/24 06:00 18.8 96 12 18 SW - 211
02/20/24 05:00 18.5 96 11 17 SW - 210
02/20/24 04:00 18.3 96 10 14 S - 194